Brumley, MO

9:39 PM CDT on August 27, 2016 (GMT -0500)
Fine Memorial | | Change Station

Elev 869 ft 38.10 °N, 92.55 °W | Updated 43 minutes ago

Clear
Clear
75 °F
Feels Like 75 °F
N
4
Wind Variable Wind from SE

Today
High -- | Low -- °F
--% Chance of Precip.
Yesterday
High -- | Low -- °F
Precip. -- in
Pressure 30.09 in
Visibility 10.0 miles
Clouds Clear
Dew Point 73 °F
Humidity 94%
Rainfall 0.09 in
Snow Depth Not available.
6:36 AM 7:46 PM
Waning Crescent, 19% visible
METAR KAIZ 280156Z AUTO 14003KT 10SM CLR 24/23 A3006 RMK AO2 SLP190 T02390228
Pressure 30.09 in
Visibility 10.0 miles
Clouds Clear
Dew Point 73 °F
Humidity 94%
Rainfall 0.09 in
Snow Depth Not available.
6:36 AM 7:46 PM
Waning Crescent, 19% visible
METAR KAIZ 280156Z AUTO 14003KT 10SM CLR 24/23 A3006 RMK AO2 SLP190 T02390228

10-Day Weather Forecast

Almanac

Astronomy

Aug. 27, 2016 Rise Set
Actual Time
Civil Twilight
Nautical Twilight
Astronomical Twilight
Moon
Length of Visible Light
Length of Day
Tomorrow will be .
, % of the Moon is Illuminated

Today's Extremes

State Highs State Lows

Community

WunderPhotos

Upload Photos

1,935,497 photos uploaded!

WunderBlog® & News

Nearby

Air Quality

  Air Quality AQ Index Pollutant
Not available.

Snow Depth

Station Depth Elevation

Earthquake Activity

City Distance Mag. Time & Date
Minimum magnitude displayed is 2.5.

Coastal Water Temperatures

Place Temperature

Stations

Nearby Weather Stations

Station Location Temp. Windchill Dew Point Humidity Wind Precip. Elev Updated Type
                   

Watches & Warnings

There are currently no watches in effect.